Latest Weather Observations for Point Perpendicular

IDN60801

Issued at 11:35 am EST Friday 19 September 2014 (issued every 30 minutes, with the page automatically refreshed every 10 minutes)

About weather observations | Map of weather stations | Latest weather observations for NSW | Other Formats
Station Details ID: 068151 Name: POINT PERPENDICULAR AWS Lat: -35.09 Lon: 150.80 Height: 85.0 m
Data from the previous 72 hours. | See also: Recent months at Point Perpendicular
Date/Time
EST
Temp
°C
App
Temp
°C
Dew
Point
Rel
Hum
%
Delta-T
°C
Wind Press
QNH
hPa
Press
MSL
hPa
Rain
since 9 am
mm
Dir
 
Spd
km/h
Gust
km/h
Spd
kts
Gust
kts
19/11:30am 14.4 10.0 4.7 52 4.5 S 17 24 9 13 1021.1 1021.0 0.0
19/11:00am 14.1 10.1 4.9 54 4.3 S 15 26 8 14 1021.5 1021.5 0.0
19/10:30am 14.4 10.5 5.5 55 4.2 S 15 24 8 13 1021.8 1021.8 0.0
19/10:00am 13.6 10.3 6.2 61 3.5 S 13 22 7 12 1022.0 1022.0 0.0
19/09:30am 12.8 9.8 5.9 63 3.3 SSW 11 17 6 9 1022.3 1022.3 0.0
19/09:00am 12.3 10.1 5.5 63 3.2 WSW 6 13 3 7 1022.3 1022.3 0.0
19/08:30am 11.6 8.9 5.5 66 2.8 W 9 11 5 6 1022.2 1022.2 0.0
19/08:00am 10.8 8.1 5.6 70 2.4 WNW 9 13 5 7 1022.0 1022.0 0.0
19/07:30am 10.3 7.7 6.1 75 1.9 WNW 9 15 5 8 1021.7 1021.7 0.0
19/07:00am 9.5 6.9 6.0 79 1.6 WNW 9 11 5 6 1021.6 1021.6 0.0
19/06:30am 8.2 5.5 5.7 84 1.1 NW 9 13 5 7 1021.4 1021.3 0.0
19/06:00am 7.9 5.2 5.7 86 1.0 NW 9 11 5 6 1021.2 1021.1 0.0
19/05:30am 7.9 5.6 5.7 86 1.0 NW 7 11 4 6 1021.0 1020.9 0.0
19/05:00am 8.2 5.6 6.0 86 1.0 WNW 9 13 5 7 1020.6 1020.5 0.0
19/04:30am 8.1 5.1 5.9 86 1.0 NW 11 13 6 7 1020.4 1020.3 0.0
19/04:00am 8.5 5.5 6.1 85 1.1 WNW 11 11 6 6 1020.0 1019.9 0.0
19/03:30am 8.7 5.9 6.8 88 0.9 WNW 11 13 6 7 1019.9 1019.8 0.0
19/03:00am 8.9 6.0 6.7 86 1.0 WNW 11 13 6 7 1020.0 1019.9 0.0
19/02:30am 9.1 6.3 7.1 87 0.9 NW 11 11 6 6 1020.0 1019.9 0.0
19/02:00am 9.3 6.8 6.7 84 1.2 NW 9 11 5 6 1020.3 1020.2 0.0
19/01:30am 9.7 6.8 6.4 80 1.5 NW 11 13 6 7 1020.4 1020.3 0.0
19/01:00am 9.9 7.3 6.2 78 1.7 WNW 9 15 5 8 1020.6 1020.5 0.0
19/12:30am 9.6 7.2 7.0 84 1.2 NW 9 11 5 6 1020.7 1020.6 0.0
19/12:00am 10.5 8.6 7.7 83 1.3 NW 7 9 4 5 1020.9 1020.8 0.0
 
Date/Time
EST
Temp
°C
App
Temp
°C
Dew
Point
Rel
Hum
%
Delta-T
°C
Wind Press
QNH
hPa
Press
MSL
hPa
Rain
since 9 am
mm
Dir
 
Spd
km/h
Gust
km/h
Spd
kts
Gust
kts
18/11:30pm 10.6 8.9 8.2 85 1.2 NW 7 11 4 6 1020.9 1020.8 0.0
18/11:00pm 11.0 8.8 8.0 82 1.5 WNW 9 11 5 6 1020.9 1020.8 0.0
18/10:30pm 11.6 9.8 7.9 78 1.8 W 7 9 4 5 1020.8 1020.7 0.0
18/10:00pm 11.9 9.7 7.8 76 2.0 WNW 9 11 5 6 1020.8 1020.7 0.0
18/09:30pm 12.4 10.3 8.1 75 2.1 WNW 9 11 5 6 1021.0 1020.9 0.0
18/09:00pm 12.7 10.9 7.8 72 2.4 WNW 7 11 4 6 1020.8 1020.7 0.0
18/08:30pm 12.8 10.6 6.2 64 3.1 NW 7 9 4 5 1020.8 1020.7 0.0
18/08:00pm 12.9 10.2 5.8 62 3.3 WNW 9 13 5 7 1020.6 1020.5 0.0
18/07:30pm 12.8 8.9 7.0 68 2.8 W 17 28 9 15 1020.6 1020.5 0.0
18/07:00pm 13.5 9.9 5.2 57 3.9 S 13 20 7 11 1020.0 1019.9 0.0
18/06:30pm 13.9 10.4 5.5 57 4.0 S 13 20 7 11 1019.6 1019.5 0.0
18/06:00pm 14.2 11.0 5.0 54 4.3 S 11 20 6 11 1019.4 1019.3 0.0
18/05:30pm 14.2 11.4 5.0 54 4.3 S 9 15 5 8 1018.8 1018.7 0.0
18/05:00pm 14.4 10.7 4.7 52 4.5 S 13 20 7 11 1018.5 1018.4 0.0
18/04:30pm 14.2 11.3 4.5 52 4.5 SSE 9 15 5 8 1018.2 1018.1 0.0
18/04:00pm 14.3 10.6 4.6 52 4.5 SSE 13 20 7 11 1017.8 1017.7 0.0
18/03:30pm 15.0 10.5 4.1 48 5.0 SE 17 24 9 13 1017.3 1017.2 0.0
18/03:00pm 14.9 10.0 4.0 48 5.0 SSE 19 28 10 15 1016.9 1016.8 0.0
18/02:30pm 15.2 10.1 4.0 47 5.2 SSE 20 32 11 17 1016.8 1016.7 0.0
18/02:00pm 15.1 10.4 3.3 45 5.4 SE 17 28 9 15 1017.0 1016.9 0.0
18/01:30pm 15.3 10.3 3.8 46 5.3 SSE 19 26 10 14 1017.0 1016.9 0.0
18/01:00pm 15.5 10.1 2.7 42 5.8 SSE 20 28 11 15 1017.4 1017.3 0.0
18/12:30pm 15.5 10.8 3.3 44 5.6 SSE 17 24 9 13 1017.6 1017.5 0.0
18/12:00pm 14.5 8.9 1.4 41 5.7 S 20 28 11 15 1017.8 1017.7 0.0
18/11:30am 14.2 8.6 0.1 38 5.9 S 19 28 10 15 1018.0 1017.9 0.0
18/11:00am 13.9 8.1 -0.2 38 5.9 SSW 20 32 11 17 1018.1 1018.0 0.0
18/10:30am 13.9 8.5 1.5 43 5.4 SW 19 30 10 16 1018.0 1017.9 0.0
18/10:00am 13.7 9.3 0.4 40 5.6 WSW 13 24 7 13 1018.5 1018.4 0.0
18/09:30am 13.6 8.2 2.5 47 4.9 W 20 28 11 15 1018.4 1018.3 0.0
18/09:00am 13.2 7.4 -0.1 40 5.5 WSW 20 30 11 16 1018.2 1018.1 0.0
18/08:30am 12.7 7.5 2.6 50 4.4 W 19 26 10 14 1018.2 1018.1 0.0
18/08:00am 12.0 7.3 3.0 54 4.0 W 17 24 9 13 1017.8 1017.7 0.0
18/07:30am 11.3 7.0 3.1 57 3.6 WSW 15 24 8 13 1017.6 1017.5 0.0
18/07:00am 11.1 6.3 2.7 56 3.6 W 17 26 9 14 1017.2 1017.1 0.0
18/06:30am 10.8 6.8 2.9 58 3.4 W 13 24 7 13 1016.9 1016.8 0.0
18/06:00am 10.9 7.3 2.7 57 3.5 W 11 17 6 9 1016.3 1016.2 0.0
18/05:30am 11.4 7.0 2.9 56 3.7 W 15 24 8 13 1016.1 1016.0 0.0
18/05:00am 11.7 8.0 4.2 60 3.4 W 13 22 7 12 1015.8 1015.7 0.0
18/04:30am 11.8 7.9 3.3 56 3.8 W 13 20 7 11 1015.4 1015.3 0.0
18/04:00am 11.9 8.7 3.2 55 3.8 WSW 9 15 5 8 1015.1 1015.0 0.0
18/03:30am 12.5 9.0 3.7 55 4.0 W 11 22 6 12 1014.9 1014.8 0.0
18/03:00am 12.7 8.7 3.1 52 4.3 W 13 17 7 9 1014.8 1014.7 0.0
18/02:30am 12.9 9.6 4.6 57 3.8 WSW 11 15 6 8 1014.8 1014.7 0.0
18/02:00am 13.1 9.2 3.5 52 4.3 WSW 13 22 7 12 1014.9 1014.8 0.0
18/01:30am 13.4 8.9 4.3 54 4.2 WSW 17 26 9 14 1014.8 1014.7 0.0
18/01:00am 13.3 9.5 3.7 52 4.3 SW 13 22 7 12 1014.7 1014.6 0.0
18/12:30am 13.8 8.9 3.9 51 4.5 W 19 30 10 16 1014.1 1014.0 0.0
18/12:00am 14.0 8.1 4.0 51 4.6 W 24 35 13 19 1014.0 1013.9 0.0
 
Date/Time
EST
Temp
°C
App
Temp
°C
Dew
Point
Rel
Hum
%
Delta-T
°C
Wind Press
QNH
hPa
Press
MSL
hPa
Rain
since 9 am
mm
Dir
 
Spd
km/h
Gust
km/h
Spd
kts
Gust
kts
17/11:30pm 14.1 9.2 4.1 51 4.6 W 19 30 10 16 1013.9 1013.8 0.0
17/11:00pm 14.0 8.5 4.0 51 4.6 WSW 22 33 12 18 1013.9 1013.8 0.0
17/10:30pm 14.3 8.3 3.5 48 4.9 W 24 33 13 18 1013.5 1013.4 0.0
17/10:00pm 14.4 9.1 3.2 47 5.1 W 20 30 11 16 1013.1 1013.0 0.0
17/09:30pm 14.5 9.6 4.2 50 4.8 W 19 30 10 16 1013.0 1012.9 0.0
17/09:00pm 14.8 9.9 5.3 53 4.5 W 20 32 11 17 1012.5 1012.4 0.0
17/08:30pm 14.9 9.1 4.6 50 4.8 W 24 35 13 19 1012.2 1012.1 0.0
17/08:00pm 14.9 9.5 4.3 49 4.9 W 22 33 12 18 1011.9 1011.8 0.0
17/07:30pm 15.0 10.0 4.4 49 4.9 W 20 33 11 18 1011.8 1011.7 0.0
17/07:00pm 15.5 10.2 4.8 49 5.1 W 22 35 12 19 1011.4 1011.3 0.0
17/06:30pm 16.0 10.3 4.7 47 5.3 W 24 35 13 19 1010.8 1010.7 0.0
17/06:00pm 16.2 10.6 3.3 42 5.9 W 22 43 12 23 1010.4 1010.3 0.0
17/05:30pm 16.8 10.2 4.2 43 5.9 W 28 41 15 22 1009.9 1009.8 0.0
17/05:05pm 17.2 10.7 4.9 44 5.9 W 28 46 15 25 1009.6 1009.5 0.0
17/05:00pm 17.3 9.8 3.2 39 6.5 W 32 48 17 26 1009.5 1009.4 0.0
17/04:43pm 17.6 10.9 3.5 39 6.6 W 28 52 15 28 1009.0 1008.9 0.0
17/04:30pm 18.2 11.5 3.7 38 6.8 W 28 44 15 24 1009.1 1009.0 0.0
17/04:02pm 18.2 10.5 2.5 35 7.2 W 32 50 17 27 1008.8 1008.7 0.0
17/04:00pm 18.2 10.6 2.9 36 7.1 W 32 48 17 26 1008.9 1008.8 0.0
17/03:30pm 18.4 11.5 2.7 35 7.3 W 28 46 15 25 1008.6 1008.5 0.0
17/03:28pm 18.2 11.5 3.7 38 6.8 W 28 46 15 25 1008.5 1008.4 0.0
17/03:00pm 18.5 11.8 3.6 37 7.0 W 28 43 15 23 1008.6 1008.5 0.0
17/02:30pm 18.6 11.8 3.3 36 7.2 W 28 46 15 25 1008.5 1008.4 0.0
17/02:26pm 18.5 11.6 2.8 35 7.3 W 28 46 15 25 1008.5 1008.4 0.0
17/02:00pm 18.2 11.8 3.3 37 7.0 W 26 39 14 21 1008.6 1008.5 0.0
17/01:30pm 18.6 12.6 3.3 36 7.2 W 24 35 13 19 1008.7 1008.6 0.0
17/01:00pm 18.4 13.1 4.9 41 6.5 W 22 35 12 19 1008.9 1008.8 0.0
17/12:30pm 18.1 12.9 3.6 38 6.8 W 20 33 11 18 1009.1 1009.0 0.0
17/12:00pm 18.4 13.2 3.8 38 6.9 W 20 32 11 17 1009.5 1009.4 0.0
17/11:30am 17.9 12.6 4.8 42 6.3 W 22 33 12 18 1009.7 1009.6 0.0
17/11:00am 17.8 12.6 3.3 38 6.8 W 20 30 11 16 1010.1 1010.0 0.0
17/10:30am 17.4 12.3 3.0 38 6.6 W 19 30 10 16 1010.3 1010.2 0.0
17/10:00am 17.3 12.7 5.6 46 5.7 W 19 28 10 15 1010.5 1010.4 0.0
17/09:30am 16.6 11.9 6.1 50 5.1 W 20 32 11 17 1010.8 1010.7 0.0
17/09:00am 16.2 11.2 6.6 53 4.7 W 22 32 12 17 1011.0 1010.9 5.0
17/08:30am 15.7 10.9 7.2 57 4.2 W 22 32 12 17 1011.3 1011.1 5.0
17/08:00am 15.2 11.1 7.7 61 3.8 WNW 19 26 10 14 1011.2 1011.0 5.0
17/07:30am 14.9 10.8 7.7 62 3.6 WNW 19 30 10 16 1010.8 1010.7 5.0
17/07:00am 14.9 11.6 7.9 63 3.5 WNW 15 24 8 13 1010.5 1010.4 5.0
17/06:30am 14.9 12.0 8.2 64 3.4 WNW 13 20 7 11 1010.1 1010.0 5.0
17/06:00am 14.9 12.5 8.6 66 3.2 WNW 11 15 6 8 1010.0 1009.9 5.0
17/05:30am 15.0 12.7 9.1 68 3.0 WNW 11 17 6 9 1009.8 1009.7 5.0
17/05:00am 15.0 13.1 9.1 68 3.0 WNW 9 13 5 7 1009.5 1009.4 5.0
17/04:30am 14.6 12.3 9.0 69 2.9 WNW 11 13 6 7 1009.1 1009.0 5.0
17/04:00am 14.4 12.1 9.0 70 2.8 WNW 11 15 6 8 1009.1 1009.0 5.0
17/03:30am 14.4 12.5 9.2 71 2.7 WNW 9 15 5 8 1008.8 1008.7 5.0
17/03:00am 14.1 11.7 8.5 69 2.8 WNW 11 13 6 7 1008.6 1008.5 5.0
17/02:30am 14.4 12.5 9.2 71 2.7 W 9 11 5 6 1008.5 1008.4 5.0
17/02:00am 14.9 12.8 9.7 71 2.7 W 11 15 6 8 1008.7 1008.6 5.0
17/01:30am 15.0 13.1 8.9 67 3.1 W 9 15 5 8 1008.8 1008.7 5.0
17/01:00am 15.0 12.2 8.7 66 3.2 W 13 17 7 9 1009.0 1008.9 5.0
17/12:30am 15.5 12.8 9.0 65 3.3 W 13 20 7 11 1008.9 1008.8 5.0
17/12:00am 15.6 13.4 9.3 66 3.3 W 11 13 6 7 1008.5 1008.4 5.0
 
Date/Time
EST
Temp
°C
App
Temp
°C
Dew
Point
Rel
Hum
%
Delta-T
°C
Wind Press
QNH
hPa
Press
MSL
hPa
Rain
since 9 am
mm
Dir
 
Spd
km/h
Gust
km/h
Spd
kts
Gust
kts
16/11:30pm 15.7 13.8 9.1 65 3.4 WNW 9 13 5 7 1008.2 1008.1 5.0
16/11:00pm 15.8 12.7 8.8 63 3.6 W 15 26 8 14 1008.2 1008.1 5.0
16/10:30pm 15.8 12.4 9.2 65 3.4 W 17 28 9 15 1008.2 1008.1 5.0
16/10:00pm 16.0 11.9 8.7 62 3.8 W 20 32 11 17 1008.0 1007.9 5.0
16/09:30pm 16.2 11.8 8.9 62 3.8 W 22 35 12 19 1007.7 1007.6 5.0
16/09:00pm 16.4 12.2 8.4 59 4.1 WNW 20 32 11 17 1007.5 1007.4 5.0
16/08:30pm 16.5 12.3 8.2 58 4.2 WNW 20 30 11 16 1007.5 1007.4 5.0
16/08:00pm 16.7 13.1 8.4 58 4.3 WNW 17 24 9 13 1007.4 1007.3 5.0
16/07:30pm 16.7 13.3 9.1 61 3.9 WNW 17 30 9 16 1007.3 1007.2 5.0
16/07:00pm 16.8 13.7 9.0 60 4.1 NW 15 22 8 12 1007.2 1007.1 5.0
16/06:30pm 16.9 14.8 9.6 62 3.8 WNW 11 17 6 9 1007.2 1007.1 5.0
16/06:00pm 17.6 14.2 9.0 57 4.5 WNW 17 26 9 14 1006.6 1006.5 5.0
16/05:30pm 18.3 14.8 7.4 49 5.5 WNW 15 24 8 13 1006.2 1006.1 5.0
16/05:00pm 18.6 14.3 8.0 50 5.5 W 20 35 11 19 1005.9 1005.8 5.0
16/04:30pm 19.5 16.1 7.6 46 6.1 W 15 24 8 13 1005.6 1005.5 5.0
16/04:00pm 19.9 18.3 11.7 59 4.6 NW 11 20 6 11 1005.5 1005.4 5.0
16/03:30pm 18.6 16.9 15.8 84 1.7 N 19 28 10 15 1005.4 1005.3 5.0
16/03:00pm 17.9 16.3 16.4 91 0.9 NNE 20 26 11 14 1005.6 1005.5 5.0
16/02:30pm 18.5 17.2 17.3 93 0.7 NNE 20 32 11 17 1005.7 1005.6 5.0
16/02:00pm 16.8 14.8 15.0 89 1.0 N 19 28 10 15 1006.4 1006.3 3.6
16/01:30pm 18.9 15.8 13.5 71 3.1 N 22 35 12 19 1006.1 1006.0 0.0
16/01:00pm 20.9 18.4 14.1 65 4.0 N 20 30 11 16 1006.3 1006.2 0.0
16/12:30pm 21.2 19.0 14.8 67 3.8 N 20 30 11 16 1007.3 1007.2 0.0
16/12:00pm 20.6 17.6 14.9 70 3.4 N 24 33 13 18 1007.8 1007.7 0.0

Other Formats:

Comma delimited format used in spreadsheet applications
http://www.bom.gov.au/fwo/IDN60801/IDN60801.95940.axf

JavaScript Object Notation format (JSON) in row-major order
http://www.bom.gov.au/fwo/IDN60801/IDN60801.95940.json